sensor_id;sensor_type;location;lat;lon;timestamp;temperature;humidity
21801;DHT22;11062;51.164;16.924;2023-05-10T00:02:01;30.80;30.80
21801;DHT22;11062;51.164;16.924;2023-05-10T00:04:30;30.70;30.70
21801;DHT22;11062;51.164;16.924;2023-05-10T00:06:56;30.70;30.40
21801;DHT22;11062;51.164;16.924;2023-05-10T00:09:22;30.20;30.50
21801;DHT22;11062;51.164;16.924;2023-05-10T00:11:48;30.40;30.90
21801;DHT22;11062;51.164;16.924;2023-05-10T00:14:14;30.10;30.70
21801;DHT22;11062;51.164;16.924;2023-05-10T00:16:40;30.50;31.70
21801;DHT22;11062;51.164;16.924;2023-05-10T00:19:06;30.30;30.90
21801;DHT22;11062;51.164;16.924;2023-05-10T00:21:38;30.20;30.50
21801;DHT22;11062;51.164;16.924;2023-05-10T00:24:07;30.50;30.90
21801;DHT22;11062;51.164;16.924;2023-05-10T00:26:33;30.50;31.20
21801;DHT22;11062;51.164;16.924;2023-05-10T00:28:59;30.50;31.20
21801;DHT22;11062;51.164;16.924;2023-05-10T00:31:31;30.50;31.00
21801;DHT22;11062;51.164;16.924;2023-05-10T00:33:56;30.50;31.50
21801;DHT22;11062;51.164;16.924;2023-05-10T00:36:22;29.80;31.10
21801;DHT22;11062;51.164;16.924;2023-05-10T00:38:51;29.80;30.90
21801;DHT22;11062;51.164;16.924;2023-05-10T00:41:17;30.50;30.90
21801;DHT22;11062;51.164;16.924;2023-05-10T00:43:47;30.40;31.60
21801;DHT22;11062;51.164;16.924;2023-05-10T00:46:14;30.40;31.40
21801;DHT22;11062;51.164;16.924;2023-05-10T00:48:44;29.80;30.70
21801;DHT22;11062;51.164;16.924;2023-05-10T00:51:10;30.40;31.40
21801;DHT22;11062;51.164;16.924;2023-05-10T00:53:36;30.40;31.60
21801;DHT22;11062;51.164;16.924;2023-05-10T00:56:09;30.30;31.60
21801;DHT22;11062;51.164;16.924;2023-05-10T00:58:36;30.30;31.00
21801;DHT22;11062;51.164;16.924;2023-05-10T01:01:05;30.30;31.30
21801;DHT22;11062;51.164;16.924;2023-05-10T01:03:37;30.30;31.30
21801;DHT22;11062;51.164;16.924;2023-05-10T01:06:07;29.50;30.80
21801;DHT22;11062;51.164;16.924;2023-05-10T01:08:36;30.20;31.50
21801;DHT22;11062;51.164;16.924;2023-05-10T01:11:04;30.00;31.30
21801;DHT22;11062;51.164;16.924;2023-05-10T01:13:36;29.90;31.30
21801;DHT22;11062;51.164;16.924;2023-05-10T01:48:55;29.70;31.60
21801;DHT22;11062;51.164;16.924;2023-05-10T01:51:26;29.70;31.60
21801;DHT22;11062;51.164;16.924;2023-05-10T01:54:00;29.60;32.10
21801;DHT22;11062;51.164;16.924;2023-05-10T01:56:34;28.90;31.80
21801;DHT22;11062;51.164;16.924;2023-05-10T01:59:08;29.50;31.80
21801;DHT22;11062;51.164;16.924;2023-05-10T02:01:40;29.50;32.20
21801;DHT22;11062;51.164;16.924;2023-05-10T02:04:08;29.30;32.20
21801;DHT22;11062;51.164;16.924;2023-05-10T02:06:39;29.30;32.40
21801;DHT22;11062;51.164;16.924;2023-05-10T02:09:06;29.20;32.30
21801;DHT22;11062;51.164;16.924;2023-05-10T02:11:38;29.20;32.50
21801;DHT22;11062;51.164;16.924;2023-05-10T02:14:07;29.20;32.50
21801;DHT22;11062;51.164;16.924;2023-05-10T02:16:41;29.10;32.50
21801;DHT22;11062;51.164;16.924;2023-05-10T02:19:12;28.90;32.40
21801;DHT22;11062;51.164;16.924;2023-05-10T02:21:43;28.70;32.30
21801;DHT22;11062;51.164;16.924;2023-05-10T02:24:11;28.70;32.30
21801;DHT22;11062;51.164;16.924;2023-05-10T02:26:40;28.60;32.50
21801;DHT22;11062;51.164;16.924;2023-05-10T02:29:08;29.10;32.70
21801;DHT22;11062;51.164;16.924;2023-05-10T02:31:35;28.40;32.40
21801;DHT22;11062;51.164;16.924;2023-05-10T02:34:06;28.70;32.50
21801;DHT22;11062;51.164;16.924;2023-05-10T02:36:36;29.00;32.70
21801;DHT22;11062;51.164;16.924;2023-05-10T02:39:07;28.70;32.60
21801;DHT22;11062;51.164;16.924;2023-05-10T02:41:40;28.60;32.60
21801;DHT22;11062;51.164;16.924;2023-05-10T02:44:12;28.40;32.40
21801;DHT22;11062;51.164;16.924;2023-05-10T03:22:08;27.90;32.40
21801;DHT22;11062;51.164;16.924;2023-05-10T03:25:12;27.90;33.10
21801;DHT22;11062;51.164;16.924;2023-05-10T03:28:40;28.70;33.20
21801;DHT22;11062;51.164;16.924;2023-05-10T03:31:38;27.70;32.60
21801;DHT22;11062;51.164;16.924;2023-05-10T03:34:43;28.40;33.50
21801;DHT22;11062;51.164;16.924;2023-05-10T03:48:13;27.90;33.10
21801;DHT22;11062;51.164;16.924;2023-05-10T03:50:39;28.60;34.40
21801;DHT22;11062;51.164;16.924;2023-05-10T03:53:08;28.50;33.80
21801;DHT22;11062;51.164;16.924;2023-05-10T03:55:38;28.60;33.90
21801;DHT22;11062;51.164;16.924;2023-05-10T03:58:06;28.70;33.90
21801;DHT22;11062;51.164;16.924;2023-05-10T04:00:38;28.60;33.60
21801;DHT22;11062;51.164;16.924;2023-05-10T04:03:09;28.60;33.90
21801;DHT22;11062;51.164;16.924;2023-05-10T04:05:36;28.40;34.30
21801;DHT22;11062;51.164;16.924;2023-05-10T04:08:02;28.70;34.00
21801;DHT22;11062;51.164;16.924;2023-05-10T04:10:34;28.70;34.00
21801;DHT22;11062;51.164;16.924;2023-05-10T04:13:00;29.10;34.00
21801;DHT22;11062;51.164;16.924;2023-05-10T04:15:26;28.50;34.10
21801;DHT22;11062;51.164;16.924;2023-05-10T04:17:52;28.60;33.90
21801;DHT22;11062;51.164;16.924;2023-05-10T04:20:20;28.10;33.60
21801;DHT22;11062;51.164;16.924;2023-05-10T04:22:46;28.60;33.90
21801;DHT22;11062;51.164;16.924;2023-05-10T04:25:18;28.70;33.50
21801;DHT22;11062;51.164;16.924;2023-05-10T04:27:49;28.80;33.70
21801;DHT22;11062;51.164;16.924;2023-05-10T04:30:18;28.70;33.40
21801;DHT22;11062;51.164;16.924;2023-05-10T04:32:44;28.80;33.80
21801;DHT22;11062;51.164;16.924;2023-05-10T04:35:10;29.00;33.80
21801;DHT22;11062;51.164;16.924;2023-05-10T04:37:36;28.70;33.40
21801;DHT22;11062;51.164;16.924;2023-05-10T04:40:03;28.20;32.90
21801;DHT22;11062;51.164;16.924;2023-05-10T04:42:29;28.90;33.00
21801;DHT22;11062;51.164;16.924;2023-05-10T04:44:55;29.00;33.40
21801;DHT22;11062;51.164;16.924;2023-05-10T04:47:23;29.00;32.90
21801;DHT22;11062;51.164;16.924;2023-05-10T04:49:49;28.80;33.10
21801;DHT22;11062;51.164;16.924;2023-05-10T04:52:15;29.20;33.20
21801;DHT22;11062;51.164;16.924;2023-05-10T04:54:43;29.30;33.20
21801;DHT22;11062;51.164;16.924;2023-05-10T04:57:11;29.50;32.50
21801;DHT22;11062;51.164;16.924;2023-05-10T04:59:37;29.10;32.40
21801;DHT22;11062;51.164;16.924;2023-05-10T05:02:03;29.40;32.80
21801;DHT22;11062;51.164;16.924;2023-05-10T05:04:31;29.50;32.60
21801;DHT22;11062;51.164;16.924;2023-05-10T05:06:57;29.60;32.50
21801;DHT22;11062;51.164;16.924;2023-05-10T05:09:26;29.80;32.70
21801;DHT22;11062;51.164;16.924;2023-05-10T05:12:01;29.90;32.20
21801;DHT22;11062;51.164;16.924;2023-05-10T05:14:27;29.90;32.10
21801;DHT22;11062;51.164;16.924;2023-05-10T05:16:53;30.10;32.30
21801;DHT22;11062;51.164;16.924;2023-05-10T05:19:19;29.70;32.00
21801;DHT22;11062;51.164;16.924;2023-05-10T05:21:47;29.70;31.70
21801;DHT22;11062;51.164;16.924;2023-05-10T05:24:16;30.10;31.50
21801;DHT22;11062;51.164;16.924;2023-05-10T05:26:42;29.90;32.20
21801;DHT22;11062;51.164;16.924;2023-05-10T05:29:11;29.60;31.60
21801;DHT22;11062;51.164;16.924;2023-05-10T05:31:37;30.10;32.20
21801;DHT22;11062;51.164;16.924;2023-05-10T05:34:06;30.30;31.70
21801;DHT22;11062;51.164;16.924;2023-05-10T05:36:35;30.40;32.20
21801;DHT22;11062;51.164;16.924;2023-05-10T05:39:01;30.20;31.50
21801;DHT22;11062;51.164;16.924;2023-05-10T05:41:27;30.20;32.00
21801;DHT22;11062;51.164;16.924;2023-05-10T05:43:56;30.00;32.00
21801;DHT22;11062;51.164;16.924;2023-05-10T05:46:36;29.60;31.70
21801;DHT22;11062;51.164;16.924;2023-05-10T05:49:07;29.60;31.50
21801;DHT22;11062;51.164;16.924;2023-05-10T05:51:33;28.60;31.20
21801;DHT22;11062;51.164;16.924;2023-05-10T05:54:00;28.10;32.10
21801;DHT22;11062;51.164;16.924;2023-05-10T05:56:33;28.40;32.20
21801;DHT22;11062;51.164;16.924;2023-05-10T05:59:01;29.00;32.40
21801;DHT22;11062;51.164;16.924;2023-05-10T06:01:27;29.20;32.70
21801;DHT22;11062;51.164;16.924;2023-05-10T06:03:59;29.20;32.90
21801;DHT22;11062;51.164;16.924;2023-05-10T06:06:31;29.40;32.30
21801;DHT22;11062;51.164;16.924;2023-05-10T06:09:09;28.90;32.90
21801;DHT22;11062;51.164;16.924;2023-05-10T09:29:49;33.60;32.30
21801;DHT22;11062;51.164;16.924;2023-05-10T10:03:54;34.40;32.10
21801;DHT22;11062;51.164;16.924;2023-05-10T10:07:25;34.80;31.20
21801;DHT22;11062;51.164;16.924;2023-05-10T10:17:31;34.90;31.50
21801;DHT22;11062;51.164;16.924;2023-05-10T10:21:07;35.50;30.80
21801;DHT22;11062;51.164;16.924;2023-05-10T10:28:39;36.00;29.80
21801;DHT22;11062;51.164;16.924;2023-05-10T10:57:53;38.10;28.60
21801;DHT22;11062;51.164;16.924;2023-05-10T11:18:23;38.70;28.10
21801;DHT22;11062;51.164;16.924;2023-05-10T11:25:30;38.70;28.40
21801;DHT22;11062;51.164;16.924;2023-05-10T11:29:06;38.80;28.10
21801;DHT22;11062;51.164;16.924;2023-05-10T11:32:32;39.00;27.70
21801;DHT22;11062;51.164;16.924;2023-05-10T11:46:42;40.00;27.20
21801;DHT22;11062;51.164;16.924;2023-05-10T11:50:14;40.10;27.00
21801;DHT22;11062;51.164;16.924;2023-05-10T12:18:23;40.40;26.60
21801;DHT22;11062;51.164;16.924;2023-05-10T12:21:51;40.00;26.40
21801;DHT22;11062;51.164;16.924;2023-05-10T12:32:45;38.60;26.40
21801;DHT22;11062;51.164;16.924;2023-05-10T12:39:57;39.70;27.00
21801;DHT22;11062;51.164;16.924;2023-05-10T12:53:59;40.40;26.50
21801;DHT22;11062;51.164;16.924;2023-05-10T13:00:39;38.60;25.70
21801;DHT22;11062;51.164;16.924;2023-05-10T13:03:08;38.80;26.50
21801;DHT22;11062;51.164;16.924;2023-05-10T13:05:34;38.90;26.90
21801;DHT22;11062;51.164;16.924;2023-05-10T13:08:03;38.20;26.50
21801;DHT22;11062;51.164;16.924;2023-05-10T13:10:35;38.40;27.00
21801;DHT22;11062;51.164;16.924;2023-05-10T13:13:02;37.60;27.30
21801;DHT22;11062;51.164;16.924;2023-05-10T13:15:28;38.30;27.20
21801;DHT22;11062;51.164;16.924;2023-05-10T13:17:54;38.30;27.30
21801;DHT22;11062;51.164;16.924;2023-05-10T13:20:23;37.70;26.70
21801;DHT22;11062;51.164;16.924;2023-05-10T13:22:49;37.90;28.20
21801;DHT22;11062;51.164;16.924;2023-05-10T13:25:18;37.40;27.70
21801;DHT22;11062;51.164;16.924;2023-05-10T13:27:44;37.80;27.50
21801;DHT22;11062;51.164;16.924;2023-05-10T13:30:12;38.00;27.70
21801;DHT22;11062;51.164;16.924;2023-05-10T14:12:14;38.40;26.20
21801;DHT22;11062;51.164;16.924;2023-05-10T14:15:44;37.50;26.40
21801;DHT22;11062;51.164;16.924;2023-05-10T14:46:11;37.40;26.70
21801;DHT22;11062;51.164;16.924;2023-05-10T14:49:10;38.60;27.00
21801;DHT22;11062;51.164;16.924;2023-05-10T14:52:46;38.60;26.60
21801;DHT22;11062;51.164;16.924;2023-05-10T15:06:54;37.40;26.00
21801;DHT22;11062;51.164;16.924;2023-05-10T15:21:03;37.40;27.00
21801;DHT22;11062;51.164;16.924;2023-05-10T15:23:32;38.00;26.70
21801;DHT22;11062;51.164;16.924;2023-05-10T15:25:59;37.90;27.10
21801;DHT22;11062;51.164;16.924;2023-05-10T15:28:28;37.30;26.80
21801;DHT22;11062;51.164;16.924;2023-05-10T15:30:56;37.80;27.00
21801;DHT22;11062;51.164;16.924;2023-05-10T15:33:24;37.80;26.80
21801;DHT22;11062;51.164;16.924;2023-05-10T15:35:51;38.00;26.70
21801;DHT22;11062;51.164;16.924;2023-05-10T15:38:19;37.80;27.00
21801;DHT22;11062;51.164;16.924;2023-05-10T15:40:51;37.90;26.90
21801;DHT22;11062;51.164;16.924;2023-05-10T15:43:28;37.90;26.30
21801;DHT22;11062;51.164;16.924;2023-05-10T16:06:49;37.70;27.00
21801;DHT22;11062;51.164;16.924;2023-05-10T18:50:22;36.50;28.40
21801;DHT22;11062;51.164;16.924;2023-05-10T18:52:51;36.60;28.50
21801;DHT22;11062;51.164;16.924;2023-05-10T18:55:17;37.10;29.00
21801;DHT22;11062;51.164;16.924;2023-05-10T18:57:43;37.00;29.10
21801;DHT22;11062;51.164;16.924;2023-05-10T19:00:10;37.00;29.20
21801;DHT22;11062;51.164;16.924;2023-05-10T19:02:40;36.80;29.20
21801;DHT22;11062;51.164;16.924;2023-05-10T19:05:11;36.90;29.20
21801;DHT22;11062;51.164;16.924;2023-05-10T19:07:41;36.70;29.10
21801;DHT22;11062;51.164;16.924;2023-05-10T19:10:11;36.50;29.60
21801;DHT22;11062;51.164;16.924;2023-05-10T19:12:38;36.60;29.60
21801;DHT22;11062;51.164;16.924;2023-05-10T19:15:09;36.60;29.60
21801;DHT22;11062;51.164;16.924;2023-05-10T19:17:48;36.60;29.60
21801;DHT22;11062;51.164;16.924;2023-05-10T19:20:16;36.60;29.60
21801;DHT22;11062;51.164;16.924;2023-05-10T19:22:42;36.10;29.50
21801;DHT22;11062;51.164;16.924;2023-05-10T19:25:08;36.60;29.90
21801;DHT22;11062;51.164;16.924;2023-05-10T19:27:38;36.50;29.60
21801;DHT22;11062;51.164;16.924;2023-05-10T19:30:10;36.50;29.70
21801;DHT22;11062;51.164;16.924;2023-05-10T19:32:38;36.70;29.90
21801;DHT22;11062;51.164;16.924;2023-05-10T19:35:14;36.70;30.00
21801;DHT22;11062;51.164;16.924;2023-05-10T19:37:41;37.00;29.80
21801;DHT22;11062;51.164;16.924;2023-05-10T19:40:14;37.10;29.60
21801;DHT22;11062;51.164;16.924;2023-05-10T19:42:44;37.30;29.60
21801;DHT22;11062;51.164;16.924;2023-05-10T20:26:59;36.40;30.20
21801;DHT22;11062;51.164;16.924;2023-05-10T20:34:20;35.40;31.00
21801;DHT22;11062;51.164;16.924;2023-05-10T20:39:17;34.90;31.30
21801;DHT22;11062;51.164;16.924;2023-05-10T20:49:13;34.40;31.70
21801;DHT22;11062;51.164;16.924;2023-05-10T20:54:08;34.40;31.90
21801;DHT22;11062;51.164;16.924;2023-05-10T20:59:10;34.30;32.30
21801;DHT22;11062;51.164;16.924;2023-05-10T21:06:31;34.40;34.10
21801;DHT22;11062;51.164;16.924;2023-05-10T21:08:57;33.90;33.10
21801;DHT22;11062;51.164;16.924;2023-05-10T21:11:23;34.80;40.10
21801;DHT22;11062;51.164;16.924;2023-05-10T21:13:52;33.90;32.90
21801;DHT22;11062;51.164;16.924;2023-05-10T21:21:14;33.90;33.00
21801;DHT22;11062;51.164;16.924;2023-05-10T21:23:45;33.80;33.00
21801;DHT22;11062;51.164;16.924;2023-05-10T21:33:50;33.80;32.60
21801;DHT22;11062;51.164;16.924;2023-05-10T21:36:16;33.50;35.70
21801;DHT22;11062;51.164;16.924;2023-05-10T21:38:45;33.40;37.20
21801;DHT22;11062;51.164;16.924;2023-05-10T21:41:11;34.40;37.90
21801;DHT22;11062;51.164;16.924;2023-05-10T21:43:40;34.00;37.60
21801;DHT22;11062;51.164;16.924;2023-05-10T21:46:09;33.40;35.30
21801;DHT22;11062;51.164;16.924;2023-05-10T21:48:40;34.70;36.80
21801;DHT22;11062;51.164;16.924;2023-05-10T21:51:14;33.70;33.10
21801;DHT22;11062;51.164;16.924;2023-05-10T21:53:40;33.70;38.00
21801;DHT22;11062;51.164;16.924;2023-05-10T21:56:09;33.80;36.20
21801;DHT22;11062;51.164;16.924;2023-05-10T21:58:36;33.10;35.50
21801;DHT22;11062;51.164;16.924;2023-05-10T22:01:02;33.20;35.50
21801;DHT22;11062;51.164;16.924;2023-05-10T22:03:28;33.00;35.10
21801;DHT22;11062;51.164;16.924;2023-05-10T22:05:54;34.20;37.40
21801;DHT22;11062;51.164;16.924;2023-05-10T22:08:20;33.30;36.00
21801;DHT22;11062;51.164;16.924;2023-05-10T22:10:50;34.30;35.30
21801;DHT22;11062;51.164;16.924;2023-05-10T22:13:19;32.20;32.80
21801;DHT22;11062;51.164;16.924;2023-05-10T22:15:50;33.70;36.00
21801;DHT22;11062;51.164;16.924;2023-05-10T22:18:16;33.80;33.00
21801;DHT22;11062;51.164;16.924;2023-05-10T22:20:45;34.30;37.80
21801;DHT22;11062;51.164;16.924;2023-05-10T22:23:39;34.00;35.10
21801;DHT22;11062;51.164;16.924;2023-05-10T23:39:35;33.50;33.00
21801;DHT22;11062;51.164;16.924;2023-05-10T23:42:03;33.40;32.60
21801;DHT22;11062;51.164;16.924;2023-05-10T23:44:32;33.10;33.70
21801;DHT22;11062;51.164;16.924;2023-05-10T23:47:02;33.00;34.90
21801;DHT22;11062;51.164;16.924;2023-05-10T23:49:31;32.70;32.20
21801;DHT22;11062;51.164;16.924;2023-05-10T23:52:09;32.40;33.50
21801;DHT22;11062;51.164;16.924;2023-05-10T23:54:35;32.80;32.20
21801;DHT22;11062;51.164;16.924;2023-05-10T23:57:02;33.80;36.80
21801;DHT22;11062;51.164;16.924;2023-05-10T23:59:30;33.50;34.90
